sensor_id;sensor_type;location;lat;lon;timestamp;P1;durP1;ratioP1;P2;durP2;ratioP2
83663;SDS011;73634;47.068;15.426;2024-03-06T00:01:31;10.63;;;5.18;;
83663;SDS011;73634;47.068;15.426;2024-03-06T00:03:56;13.60;;;5.53;;
83663;SDS011;73634;47.068;15.426;2024-03-06T00:06:22;9.85;;;4.95;;
83663;SDS011;73634;47.068;15.426;2024-03-06T00:08:49;11.88;;;5.63;;
83663;SDS011;73634;47.068;15.426;2024-03-06T00:11:14;10.85;;;4.55;;
83663;SDS011;73634;47.068;15.426;2024-03-06T00:13:40;10.07;;;4.50;;
83663;SDS011;73634;47.068;15.426;2024-03-06T00:16:05;11.27;;;5.88;;
83663;SDS011;73634;47.068;15.426;2024-03-06T00:18:31;10.55;;;4.80;;
83663;SDS011;73634;47.068;15.426;2024-03-06T00:23:15;10.43;;;4.43;;
83663;SDS011;73634;47.068;15.426;2024-03-06T00:25:40;14.13;;;4.95;;
83663;SDS011;73634;47.068;15.426;2024-03-06T00:28:06;10.63;;;4.63;;
83663;SDS011;73634;47.068;15.426;2024-03-06T00:30:31;11.20;;;5.55;;
83663;SDS011;73634;47.068;15.426;2024-03-06T00:32:57;15.43;;;4.72;;
83663;SDS011;73634;47.068;15.426;2024-03-06T00:35:23;10.82;;;4.78;;
83663;SDS011;73634;47.068;15.426;2024-03-06T00:37:49;11.13;;;4.82;;
83663;SDS011;73634;47.068;15.426;2024-03-06T00:40:14;14.60;;;5.05;;
83663;SDS011;73634;47.068;15.426;2024-03-06T00:42:39;9.43;;;4.50;;
83663;SDS011;73634;47.068;15.426;2024-03-06T00:47:25;12.40;;;5.80;;
83663;SDS011;73634;47.068;15.426;2024-03-06T00:49:50;10.90;;;4.65;;
83663;SDS011;73634;47.068;15.426;2024-03-06T00:52:16;9.73;;;4.90;;
83663;SDS011;73634;47.068;15.426;2024-03-06T00:54:41;13.23;;;5.65;;
83663;SDS011;73634;47.068;15.426;2024-03-06T00:57:07;11.82;;;5.32;;
83663;SDS011;73634;47.068;15.426;2024-03-06T00:59:32;14.48;;;4.93;;
83663;SDS011;73634;47.068;15.426;2024-03-06T01:01:57;10.95;;;4.43;;
83663;SDS011;73634;47.068;15.426;2024-03-06T01:04:23;10.27;;;4.53;;
83663;SDS011;73634;47.068;15.426;2024-03-06T01:06:48;11.10;;;5.05;;
83663;SDS011;73634;47.068;15.426;2024-03-06T01:11:35;16.30;;;6.57;;
83663;SDS011;73634;47.068;15.426;2024-03-06T01:14:02;12.10;;;4.85;;
83663;SDS011;73634;47.068;15.426;2024-03-06T01:16:28;13.15;;;4.57;;
83663;SDS011;73634;47.068;15.426;2024-03-06T01:18:54;14.13;;;4.97;;
83663;SDS011;73634;47.068;15.426;2024-03-06T01:21:19;9.95;;;4.22;;
83663;SDS011;73634;47.068;15.426;2024-03-06T01:23:45;10.77;;;4.43;;
83663;SDS011;73634;47.068;15.426;2024-03-06T01:26:11;10.85;;;4.25;;
83663;SDS011;73634;47.068;15.426;2024-03-06T01:28:37;10.23;;;4.50;;
83663;SDS011;73634;47.068;15.426;2024-03-06T01:31:02;10.05;;;4.43;;
83663;SDS011;73634;47.068;15.426;2024-03-06T01:35:45;9.13;;;4.35;;
83663;SDS011;73634;47.068;15.426;2024-03-06T01:38:11;10.80;;;4.45;;
83663;SDS011;73634;47.068;15.426;2024-03-06T01:40:36;12.20;;;4.20;;
83663;SDS011;73634;47.068;15.426;2024-03-06T01:43:02;11.77;;;4.80;;
83663;SDS011;73634;47.068;15.426;2024-03-06T01:45:27;11.15;;;4.85;;
83663;SDS011;73634;47.068;15.426;2024-03-06T01:47:53;10.30;;;4.35;;
83663;SDS011;73634;47.068;15.426;2024-03-06T01:50:18;11.38;;;4.75;;
83663;SDS011;73634;47.068;15.426;2024-03-06T01:52:44;12.40;;;4.63;;
83663;SDS011;73634;47.068;15.426;2024-03-06T01:55:11;11.55;;;4.30;;
83663;SDS011;73634;47.068;15.426;2024-03-06T02:00:26;9.93;;;4.43;;
83663;SDS011;73634;47.068;15.426;2024-03-06T02:02:52;9.38;;;4.13;;
83663;SDS011;73634;47.068;15.426;2024-03-06T02:05:17;11.23;;;4.95;;
83663;SDS011;73634;47.068;15.426;2024-03-06T02:07:43;8.23;;;4.05;;
83663;SDS011;73634;47.068;15.426;2024-03-06T02:10:09;12.15;;;4.93;;
83663;SDS011;73634;47.068;15.426;2024-03-06T02:12:37;10.45;;;4.13;;
83663;SDS011;73634;47.068;15.426;2024-03-06T02:15:03;13.57;;;5.22;;
83663;SDS011;73634;47.068;15.426;2024-03-06T02:17:29;11.38;;;4.68;;
83663;SDS011;73634;47.068;15.426;2024-03-06T02:19:55;12.05;;;4.82;;
83663;SDS011;73634;47.068;15.426;2024-03-06T02:22:20;10.13;;;3.97;;
83663;SDS011;73634;47.068;15.426;2024-03-06T02:26:52;10.38;;;4.18;;
83663;SDS011;73634;47.068;15.426;2024-03-06T02:29:18;11.25;;;4.80;;
83663;SDS011;73634;47.068;15.426;2024-03-06T02:31:43;9.02;;;4.45;;
83663;SDS011;73634;47.068;15.426;2024-03-06T02:34:09;8.43;;;4.13;;
83663;SDS011;73634;47.068;15.426;2024-03-06T02:36:34;10.43;;;4.50;;
83663;SDS011;73634;47.068;15.426;2024-03-06T02:39:01;9.82;;;4.22;;
83663;SDS011;73634;47.068;15.426;2024-03-06T02:41:26;11.55;;;4.82;;
83663;SDS011;73634;47.068;15.426;2024-03-06T02:43:52;11.95;;;4.80;;
83663;SDS011;73634;47.068;15.426;2024-03-06T02:46:17;10.55;;;4.93;;
83663;SDS011;73634;47.068;15.426;2024-03-06T02:51:20;10.00;;;3.95;;
83663;SDS011;73634;47.068;15.426;2024-03-06T02:53:46;10.77;;;4.50;;
83663;SDS011;73634;47.068;15.426;2024-03-06T02:56:17;9.85;;;4.53;;
83663;SDS011;73634;47.068;15.426;2024-03-06T02:58:43;12.88;;;4.32;;
83663;SDS011;73634;47.068;15.426;2024-03-06T03:01:08;9.57;;;4.05;;
83663;SDS011;73634;47.068;15.426;2024-03-06T03:03:34;9.63;;;3.65;;
83663;SDS011;73634;47.068;15.426;2024-03-06T03:05:59;11.35;;;4.30;;
83663;SDS011;73634;47.068;15.426;2024-03-06T03:08:25;10.23;;;4.38;;
83663;SDS011;73634;47.068;15.426;2024-03-06T03:10:51;7.20;;;3.80;;
83663;SDS011;73634;47.068;15.426;2024-03-06T03:15:48;11.95;;;3.95;;
83663;SDS011;73634;47.068;15.426;2024-03-06T03:18:14;11.27;;;4.65;;
83663;SDS011;73634;47.068;15.426;2024-03-06T03:20:40;8.60;;;4.00;;
83663;SDS011;73634;47.068;15.426;2024-03-06T03:23:05;9.40;;;4.65;;
83663;SDS011;73634;47.068;15.426;2024-03-06T03:25:36;10.93;;;4.00;;
83663;SDS011;73634;47.068;15.426;2024-03-06T03:28:02;14.40;;;4.55;;
83663;SDS011;73634;47.068;15.426;2024-03-06T03:30:27;8.82;;;3.60;;
83663;SDS011;73634;47.068;15.426;2024-03-06T03:32:52;9.45;;;4.05;;
83663;SDS011;73634;47.068;15.426;2024-03-06T03:35:18;10.57;;;4.50;;
83663;SDS011;73634;47.068;15.426;2024-03-06T03:39:58;13.18;;;4.05;;
83663;SDS011;73634;47.068;15.426;2024-03-06T03:42:24;9.10;;;3.40;;
83663;SDS011;73634;47.068;15.426;2024-03-06T03:44:49;10.73;;;3.85;;
83663;SDS011;73634;47.068;15.426;2024-03-06T03:47:15;8.90;;;3.70;;
83663;SDS011;73634;47.068;15.426;2024-03-06T03:49:40;9.30;;;3.80;;
83663;SDS011;73634;47.068;15.426;2024-03-06T03:52:05;9.57;;;3.65;;
83663;SDS011;73634;47.068;15.426;2024-03-06T03:54:31;10.10;;;3.70;;
83663;SDS011;73634;47.068;15.426;2024-03-06T03:56:57;9.98;;;4.60;;
83663;SDS011;73634;47.068;15.426;2024-03-06T03:59:24;8.15;;;3.30;;
83663;SDS011;73634;47.068;15.426;2024-03-06T04:01:50;8.27;;;3.85;;
83663;SDS011;73634;47.068;15.426;2024-03-06T04:06:10;9.90;;;3.70;;
83663;SDS011;73634;47.068;15.426;2024-03-06T04:08:36;8.05;;;4.07;;
83663;SDS011;73634;47.068;15.426;2024-03-06T04:11:02;9.38;;;3.90;;
83663;SDS011;73634;47.068;15.426;2024-03-06T04:13:34;11.88;;;4.25;;
83663;SDS011;73634;47.068;15.426;2024-03-06T04:16:01;9.10;;;4.03;;
83663;SDS011;73634;47.068;15.426;2024-03-06T04:18:27;8.52;;;3.95;;
83663;SDS011;73634;47.068;15.426;2024-03-06T04:20:52;7.68;;;3.40;;
83663;SDS011;73634;47.068;15.426;2024-03-06T04:23:18;9.77;;;3.65;;
83663;SDS011;73634;47.068;15.426;2024-03-06T04:25:43;9.88;;;4.03;;
83663;SDS011;73634;47.068;15.426;2024-03-06T04:28:09;13.32;;;4.30;;
83663;SDS011;73634;47.068;15.426;2024-03-06T04:33:32;11.30;;;4.00;;
83663;SDS011;73634;47.068;15.426;2024-03-06T04:35:58;10.82;;;3.78;;
83663;SDS011;73634;47.068;15.426;2024-03-06T04:38:30;12.00;;;4.05;;
83663;SDS011;73634;47.068;15.426;2024-03-06T04:40:56;10.38;;;3.47;;
83663;SDS011;73634;47.068;15.426;2024-03-06T04:43:21;8.68;;;4.25;;
83663;SDS011;73634;47.068;15.426;2024-03-06T04:45:47;9.88;;;4.18;;
83663;SDS011;73634;47.068;15.426;2024-03-06T04:48:12;8.73;;;3.75;;
83663;SDS011;73634;47.068;15.426;2024-03-06T04:50:37;9.93;;;4.18;;
83663;SDS011;73634;47.068;15.426;2024-03-06T04:53:03;10.27;;;4.32;;
83663;SDS011;73634;47.068;15.426;2024-03-06T04:57:43;9.95;;;3.88;;
83663;SDS011;73634;47.068;15.426;2024-03-06T05:00:10;9.05;;;3.70;;
83663;SDS011;73634;47.068;15.426;2024-03-06T05:02:36;9.95;;;3.88;;
83663;SDS011;73634;47.068;15.426;2024-03-06T05:05:02;9.27;;;3.88;;
83663;SDS011;73634;47.068;15.426;2024-03-06T05:07:29;11.45;;;4.30;;
83663;SDS011;73634;47.068;15.426;2024-03-06T05:09:55;9.73;;;3.78;;
83663;SDS011;73634;47.068;15.426;2024-03-06T05:12:22;8.40;;;3.80;;
83663;SDS011;73634;47.068;15.426;2024-03-06T05:14:48;10.63;;;4.57;;
83663;SDS011;73634;47.068;15.426;2024-03-06T05:17:13;9.23;;;3.60;;
83663;SDS011;73634;47.068;15.426;2024-03-06T05:22:11;9.90;;;3.95;;
83663;SDS011;73634;47.068;15.426;2024-03-06T05:24:37;8.98;;;3.50;;
83663;SDS011;73634;47.068;15.426;2024-03-06T05:27:02;9.95;;;3.55;;
83663;SDS011;73634;47.068;15.426;2024-03-06T05:29:28;9.93;;;3.90;;
83663;SDS011;73634;47.068;15.426;2024-03-06T05:31:53;13.70;;;4.28;;
83663;SDS011;73634;47.068;15.426;2024-03-06T05:34:20;11.48;;;4.13;;
83663;SDS011;73634;47.068;15.426;2024-03-06T05:36:45;10.27;;;4.22;;
83663;SDS011;73634;47.068;15.426;2024-03-06T05:39:11;8.40;;;3.63;;
83663;SDS011;73634;47.068;15.426;2024-03-06T05:41:40;11.77;;;4.50;;
83663;SDS011;73634;47.068;15.426;2024-03-06T05:46:43;8.63;;;3.75;;
83663;SDS011;73634;47.068;15.426;2024-03-06T05:49:09;9.88;;;3.80;;
83663;SDS011;73634;47.068;15.426;2024-03-06T05:51:34;8.60;;;3.78;;
83663;SDS011;73634;47.068;15.426;2024-03-06T05:53:59;12.35;;;4.00;;
83663;SDS011;73634;47.068;15.426;2024-03-06T05:56:25;9.25;;;3.95;;
83663;SDS011;73634;47.068;15.426;2024-03-06T05:58:50;12.57;;;5.07;;
83663;SDS011;73634;47.068;15.426;2024-03-06T06:01:15;7.15;;;3.08;;
83663;SDS011;73634;47.068;15.426;2024-03-06T06:03:45;10.23;;;4.28;;
83663;SDS011;73634;47.068;15.426;2024-03-06T06:06:11;8.73;;;3.85;;
83663;SDS011;73634;47.068;15.426;2024-03-06T06:08:37;7.50;;;3.50;;
83663;SDS011;73634;47.068;15.426;2024-03-06T06:12:09;9.55;;;3.50;;
83663;SDS011;73634;47.068;15.426;2024-03-06T06:14:34;9.93;;;4.18;;
83663;SDS011;73634;47.068;15.426;2024-03-06T06:16:59;8.50;;;3.75;;
83663;SDS011;73634;47.068;15.426;2024-03-06T06:19:25;10.40;;;3.80;;
83663;SDS011;73634;47.068;15.426;2024-03-06T06:21:54;9.23;;;4.22;;
83663;SDS011;73634;47.068;15.426;2024-03-06T06:24:19;9.18;;;3.92;;
83663;SDS011;73634;47.068;15.426;2024-03-06T06:26:45;10.80;;;4.53;;
83663;SDS011;73634;47.068;15.426;2024-03-06T06:29:10;12.07;;;4.13;;
83663;SDS011;73634;47.068;15.426;2024-03-06T06:31:36;11.77;;;4.25;;
83663;SDS011;73634;47.068;15.426;2024-03-06T06:36:35;11.52;;;4.05;;
83663;SDS011;73634;47.068;15.426;2024-03-06T06:39:02;12.43;;;4.30;;
83663;SDS011;73634;47.068;15.426;2024-03-06T06:41:31;9.50;;;4.28;;
83663;SDS011;73634;47.068;15.426;2024-03-06T06:43:56;9.80;;;4.97;;
83663;SDS011;73634;47.068;15.426;2024-03-06T06:46:21;10.20;;;4.28;;
83663;SDS011;73634;47.068;15.426;2024-03-06T06:48:47;12.77;;;4.38;;
83663;SDS011;73634;47.068;15.426;2024-03-06T06:51:14;11.50;;;4.57;;
83663;SDS011;73634;47.068;15.426;2024-03-06T06:53:39;12.73;;;4.63;;
83663;SDS011;73634;47.068;15.426;2024-03-06T06:56:06;9.50;;;4.68;;
83663;SDS011;73634;47.068;15.426;2024-03-06T07:01:30;9.13;;;3.50;;
83663;SDS011;73634;47.068;15.426;2024-03-06T07:03:55;10.57;;;4.10;;
83663;SDS011;73634;47.068;15.426;2024-03-06T07:06:21;12.57;;;5.18;;
83663;SDS011;73634;47.068;15.426;2024-03-06T07:08:46;12.82;;;5.15;;
83663;SDS011;73634;47.068;15.426;2024-03-06T07:11:12;15.95;;;7.03;;
83663;SDS011;73634;47.068;15.426;2024-03-06T07:13:37;10.40;;;4.18;;
83663;SDS011;73634;47.068;15.426;2024-03-06T07:16:03;11.07;;;4.07;;
83663;SDS011;73634;47.068;15.426;2024-03-06T07:18:29;12.15;;;4.70;;
83663;SDS011;73634;47.068;15.426;2024-03-06T07:20:55;9.38;;;4.13;;
83663;SDS011;73634;47.068;15.426;2024-03-06T07:26:17;9.23;;;4.13;;
83663;SDS011;73634;47.068;15.426;2024-03-06T07:28:42;14.63;;;4.88;;
83663;SDS011;73634;47.068;15.426;2024-03-06T07:31:07;12.00;;;5.22;;
83663;SDS011;73634;47.068;15.426;2024-03-06T07:33:33;17.58;;;5.93;;
83663;SDS011;73634;47.068;15.426;2024-03-06T07:35:59;15.73;;;6.68;;
83663;SDS011;73634;47.068;15.426;2024-03-06T07:38:24;13.60;;;6.20;;
83663;SDS011;73634;47.068;15.426;2024-03-06T07:40:50;13.93;;;6.22;;
83663;SDS011;73634;47.068;15.426;2024-03-06T07:43:15;18.02;;;7.75;;
83663;SDS011;73634;47.068;15.426;2024-03-06T07:45:41;17.98;;;6.72;;
83663;SDS011;73634;47.068;15.426;2024-03-06T07:50:39;15.70;;;6.28;;
83663;SDS011;73634;47.068;15.426;2024-03-06T07:53:05;17.88;;;6.05;;
83663;SDS011;73634;47.068;15.426;2024-03-06T07:55:30;17.05;;;7.10;;
83663;SDS011;73634;47.068;15.426;2024-03-06T07:57:56;16.48;;;7.07;;
83663;SDS011;73634;47.068;15.426;2024-03-06T08:00:21;18.15;;;8.07;;
83663;SDS011;73634;47.068;15.426;2024-03-06T08:02:47;16.13;;;7.45;;
83663;SDS011;73634;47.068;15.426;2024-03-06T08:05:16;18.52;;;8.25;;
83663;SDS011;73634;47.068;15.426;2024-03-06T08:07:41;19.63;;;8.38;;
83663;SDS011;73634;47.068;15.426;2024-03-06T08:10:08;19.73;;;6.50;;
83663;SDS011;73634;47.068;15.426;2024-03-06T08:12:34;22.77;;;8.55;;
83663;SDS011;73634;47.068;15.426;2024-03-06T08:17:04;14.32;;;7.22;;
83663;SDS011;73634;47.068;15.426;2024-03-06T08:19:30;19.85;;;8.02;;
83663;SDS011;73634;47.068;15.426;2024-03-06T08:21:55;18.35;;;8.00;;
83663;SDS011;73634;47.068;15.426;2024-03-06T08:24:21;17.23;;;7.57;;
83663;SDS011;73634;47.068;15.426;2024-03-06T08:26:46;17.95;;;8.15;;
83663;SDS011;73634;47.068;15.426;2024-03-06T08:29:13;21.15;;;7.93;;
83663;SDS011;73634;47.068;15.426;2024-03-06T08:31:38;23.70;;;8.27;;
83663;SDS011;73634;47.068;15.426;2024-03-06T08:34:04;18.83;;;7.60;;
83663;SDS011;73634;47.068;15.426;2024-03-06T08:36:29;20.27;;;7.82;;
83663;SDS011;73634;47.068;15.426;2024-03-06T08:41:33;18.77;;;9.00;;
83663;SDS011;73634;47.068;15.426;2024-03-06T08:43:58;22.42;;;8.85;;
83663;SDS011;73634;47.068;15.426;2024-03-06T08:46:24;20.80;;;8.77;;
83663;SDS011;73634;47.068;15.426;2024-03-06T08:48:49;20.02;;;8.45;;
83663;SDS011;73634;47.068;15.426;2024-03-06T08:51:15;27.75;;;10.82;;
83663;SDS011;73634;47.068;15.426;2024-03-06T08:53:41;23.20;;;9.40;;
83663;SDS011;73634;47.068;15.426;2024-03-06T08:56:06;23.13;;;8.60;;
83663;SDS011;73634;47.068;15.426;2024-03-06T08:58:32;21.80;;;9.32;;
83663;SDS011;73634;47.068;15.426;2024-03-06T09:00:57;19.95;;;9.55;;
83663;SDS011;73634;47.068;15.426;2024-03-06T09:03:24;19.27;;;8.02;;
83663;SDS011;73634;47.068;15.426;2024-03-06T09:07:14;19.23;;;8.70;;
83663;SDS011;73634;47.068;15.426;2024-03-06T09:09:39;20.00;;;9.40;;
83663;SDS011;73634;47.068;15.426;2024-03-06T09:12:06;23.02;;;9.68;;
83663;SDS011;73634;47.068;15.426;2024-03-06T09:14:35;18.90;;;8.38;;
83663;SDS011;73634;47.068;15.426;2024-03-06T09:17:00;25.23;;;10.57;;
83663;SDS011;73634;47.068;15.426;2024-03-06T09:19:26;21.20;;;8.75;;
83663;SDS011;73634;47.068;15.426;2024-03-06T09:21:53;21.05;;;9.02;;
83663;SDS011;73634;47.068;15.426;2024-03-06T09:24:20;19.48;;;9.40;;
83663;SDS011;73634;47.068;15.426;2024-03-06T09:26:47;23.02;;;9.38;;
83663;SDS011;73634;47.068;15.426;2024-03-06T09:31:42;19.35;;;9.48;;
83663;SDS011;73634;47.068;15.426;2024-03-06T09:34:08;18.17;;;7.93;;
83663;SDS011;73634;47.068;15.426;2024-03-06T09:36:37;19.98;;;8.63;;
83663;SDS011;73634;47.068;15.426;2024-03-06T09:39:05;25.90;;;9.55;;
83663;SDS011;73634;47.068;15.426;2024-03-06T09:41:30;22.73;;;10.07;;
83663;SDS011;73634;47.068;15.426;2024-03-06T09:43:56;20.25;;;8.18;;
83663;SDS011;73634;47.068;15.426;2024-03-06T09:46:22;22.42;;;8.63;;
83663;SDS011;73634;47.068;15.426;2024-03-06T09:48:47;16.98;;;6.95;;
83663;SDS011;73634;47.068;15.426;2024-03-06T09:51:14;21.48;;;8.60;;
83663;SDS011;73634;47.068;15.426;2024-03-06T09:53:40;19.50;;;9.65;;
83663;SDS011;73634;47.068;15.426;2024-03-06T09:57:23;17.48;;;8.77;;
83663;SDS011;73634;47.068;15.426;2024-03-06T09:59:48;19.55;;;8.55;;
83663;SDS011;73634;47.068;15.426;2024-03-06T10:02:36;21.75;;;9.32;;
83663;SDS011;73634;47.068;15.426;2024-03-06T10:05:02;23.85;;;10.20;;
83663;SDS011;73634;47.068;15.426;2024-03-06T10:07:28;18.25;;;9.45;;
83663;SDS011;73634;47.068;15.426;2024-03-06T10:09:53;20.70;;;10.07;;
83663;SDS011;73634;47.068;15.426;2024-03-06T10:12:20;21.83;;;8.93;;
83663;SDS011;73634;47.068;15.426;2024-03-06T10:14:52;21.92;;;10.68;;
83663;SDS011;73634;47.068;15.426;2024-03-06T10:20:22;21.92;;;9.90;;
83663;SDS011;73634;47.068;15.426;2024-03-06T10:22:52;24.85;;;10.45;;
83663;SDS011;73634;47.068;15.426;2024-03-06T10:25:22;24.02;;;10.98;;
83663;SDS011;73634;47.068;15.426;2024-03-06T10:28:07;23.55;;;11.45;;
83663;SDS011;73634;47.068;15.426;2024-03-06T10:30:34;20.13;;;8.70;;
83663;SDS011;73634;47.068;15.426;2024-03-06T10:33:04;23.17;;;9.40;;
83663;SDS011;73634;47.068;15.426;2024-03-06T10:35:33;24.17;;;11.27;;
83663;SDS011;73634;47.068;15.426;2024-03-06T10:38:02;27.33;;;11.52;;
83663;SDS011;73634;47.068;15.426;2024-03-06T10:40:33;24.58;;;9.82;;
83663;SDS011;73634;47.068;15.426;2024-03-06T10:42:59;28.95;;;12.13;;
83663;SDS011;73634;47.068;15.426;2024-03-06T10:47:45;23.33;;;9.98;;
83663;SDS011;73634;47.068;15.426;2024-03-06T10:50:13;27.48;;;11.50;;
83663;SDS011;73634;47.068;15.426;2024-03-06T10:52:40;28.10;;;11.25;;
83663;SDS011;73634;47.068;15.426;2024-03-06T10:55:06;23.13;;;10.98;;
83663;SDS011;73634;47.068;15.426;2024-03-06T10:57:35;25.75;;;11.02;;
83663;SDS011;73634;47.068;15.426;2024-03-06T11:00:02;27.52;;;11.57;;
83663;SDS011;73634;47.068;15.426;2024-03-06T11:02:27;22.92;;;11.23;;
83663;SDS011;73634;47.068;15.426;2024-03-06T11:04:54;25.67;;;12.13;;
83663;SDS011;73634;47.068;15.426;2024-03-06T11:07:20;23.65;;;10.88;;
83663;SDS011;73634;47.068;15.426;2024-03-06T11:09:45;27.05;;;12.05;;
83663;SDS011;73634;47.068;15.426;2024-03-06T11:14:48;27.40;;;11.63;;
83663;SDS011;73634;47.068;15.426;2024-03-06T11:17:16;23.63;;;10.90;;
83663;SDS011;73634;47.068;15.426;2024-03-06T11:28:38;23.10;;;10.75;;
83663;SDS011;73634;47.068;15.426;2024-03-06T11:31:09;40.50;;;18.70;;
83663;SDS011;73634;47.068;15.426;2024-03-06T11:33:46;21.85;;;11.77;;
83663;SDS011;73634;47.068;15.426;2024-03-06T11:41:26;22.98;;;11.73;;
83663;SDS011;73634;47.068;15.426;2024-03-06T11:43:53;24.50;;;10.98;;
83663;SDS011;73634;47.068;15.426;2024-03-06T11:46:20;24.45;;;10.63;;
83663;SDS011;73634;47.068;15.426;2024-03-06T11:49:13;24.20;;;10.65;;
83663;SDS011;73634;47.068;15.426;2024-03-06T11:51:45;20.13;;;10.43;;
83663;SDS011;73634;47.068;15.426;2024-03-06T11:54:11;19.50;;;10.13;;
83663;SDS011;73634;47.068;15.426;2024-03-06T11:56:41;25.48;;;11.77;;
83663;SDS011;73634;47.068;15.426;2024-03-06T11:59:09;24.77;;;12.10;;
83663;SDS011;73634;47.068;15.426;2024-03-06T12:01:34;22.88;;;11.38;;
83663;SDS011;73634;47.068;15.426;2024-03-06T12:05:16;22.70;;;10.73;;
83663;SDS011;73634;47.068;15.426;2024-03-06T12:07:49;20.83;;;8.80;;
83663;SDS011;73634;47.068;15.426;2024-03-06T12:10:16;27.55;;;11.00;;
83663;SDS011;73634;47.068;15.426;2024-03-06T12:12:42;20.50;;;10.73;;
83663;SDS011;73634;47.068;15.426;2024-03-06T12:15:10;20.10;;;10.57;;
83663;SDS011;73634;47.068;15.426;2024-03-06T12:17:47;24.13;;;10.70;;
83663;SDS011;73634;47.068;15.426;2024-03-06T12:20:16;23.40;;;9.27;;
83663;SDS011;73634;47.068;15.426;2024-03-06T12:22:49;23.42;;;10.57;;
83663;SDS011;73634;47.068;15.426;2024-03-06T12:25:22;20.55;;;10.18;;
83663;SDS011;73634;47.068;15.426;2024-03-06T12:29:56;20.80;;;9.85;;
83663;SDS011;73634;47.068;15.426;2024-03-06T12:32:22;21.98;;;11.20;;
83663;SDS011;73634;47.068;15.426;2024-03-06T12:34:58;23.55;;;10.57;;
83663;SDS011;73634;47.068;15.426;2024-03-06T12:37:28;20.30;;;11.32;;
83663;SDS011;73634;47.068;15.426;2024-03-06T12:39:57;26.33;;;10.63;;
83663;SDS011;73634;47.068;15.426;2024-03-06T12:42:23;22.27;;;12.57;;
83663;SDS011;73634;47.068;15.426;2024-03-06T12:44:51;19.85;;;10.65;;
83663;SDS011;73634;47.068;15.426;2024-03-06T12:47:17;22.48;;;11.40;;
83663;SDS011;73634;47.068;15.426;2024-03-06T12:49:42;22.73;;;12.15;;
83663;SDS011;73634;47.068;15.426;2024-03-06T12:54:37;24.90;;;12.98;;
83663;SDS011;73634;47.068;15.426;2024-03-06T12:57:02;22.25;;;13.07;;
83663;SDS011;73634;47.068;15.426;2024-03-06T12:59:28;18.27;;;12.18;;
83663;SDS011;73634;47.068;15.426;2024-03-06T13:01:53;21.52;;;13.20;;
83663;SDS011;73634;47.068;15.426;2024-03-06T13:04:19;20.50;;;12.45;;
83663;SDS011;73634;47.068;15.426;2024-03-06T13:06:44;25.65;;;15.82;;
83663;SDS011;73634;47.068;15.426;2024-03-06T13:09:10;26.73;;;13.57;;
83663;SDS011;73634;47.068;15.426;2024-03-06T13:11:36;20.55;;;12.32;;
83663;SDS011;73634;47.068;15.426;2024-03-06T13:14:01;23.63;;;12.25;;
83663;SDS011;73634;47.068;15.426;2024-03-06T13:18:50;26.00;;;14.07;;
83663;SDS011;73634;47.068;15.426;2024-03-06T13:21:17;19.10;;;11.38;;
83663;SDS011;73634;47.068;15.426;2024-03-06T13:23:43;20.35;;;11.35;;
83663;SDS011;73634;47.068;15.426;2024-03-06T13:26:08;23.00;;;13.02;;
83663;SDS011;73634;47.068;15.426;2024-03-06T13:28:33;20.38;;;10.50;;
83663;SDS011;73634;47.068;15.426;2024-03-06T13:30:59;18.55;;;9.90;;
83663;SDS011;73634;47.068;15.426;2024-03-06T13:33:24;22.00;;;12.75;;
83663;SDS011;73634;47.068;15.426;2024-03-06T13:35:51;19.17;;;11.07;;
83663;SDS011;73634;47.068;15.426;2024-03-06T13:38:16;24.42;;;12.32;;
83663;SDS011;73634;47.068;15.426;2024-03-06T13:40:42;23.92;;;11.13;;
83663;SDS011;73634;47.068;15.426;2024-03-06T13:45:03;18.90;;;10.05;;
83663;SDS011;73634;47.068;15.426;2024-03-06T13:47:29;21.42;;;10.88;;
83663;SDS011;73634;47.068;15.426;2024-03-06T13:49:55;21.02;;;10.68;;
83663;SDS011;73634;47.068;15.426;2024-03-06T13:52:21;19.40;;;10.25;;
83663;SDS011;73634;47.068;15.426;2024-03-06T13:54:47;18.50;;;9.35;;
83663;SDS011;73634;47.068;15.426;2024-03-06T13:57:13;18.05;;;10.57;;
83663;SDS011;73634;47.068;15.426;2024-03-06T13:59:39;19.67;;;11.07;;
83663;SDS011;73634;47.068;15.426;2024-03-06T14:02:05;21.30;;;9.82;;
83663;SDS011;73634;47.068;15.426;2024-03-06T14:04:31;20.08;;;10.98;;
83663;SDS011;73634;47.068;15.426;2024-03-06T14:06:57;20.52;;;10.70;;
83663;SDS011;73634;47.068;15.426;2024-03-06T14:11:14;20.55;;;9.00;;
83663;SDS011;73634;47.068;15.426;2024-03-06T14:13:39;22.50;;;10.20;;
83663;SDS011;73634;47.068;15.426;2024-03-06T14:16:04;18.80;;;9.35;;
83663;SDS011;73634;47.068;15.426;2024-03-06T14:18:31;21.52;;;10.35;;
83663;SDS011;73634;47.068;15.426;2024-03-06T14:20:56;16.95;;;9.45;;
83663;SDS011;73634;47.068;15.426;2024-03-06T14:23:22;21.02;;;10.27;;
83663;SDS011;73634;47.068;15.426;2024-03-06T14:25:47;21.00;;;10.73;;
83663;SDS011;73634;47.068;15.426;2024-03-06T14:28:12;21.02;;;10.63;;
83663;SDS011;73634;47.068;15.426;2024-03-06T14:30:37;21.25;;;9.95;;
83663;SDS011;73634;47.068;15.426;2024-03-06T14:33:03;20.65;;;10.38;;
83663;SDS011;73634;47.068;15.426;2024-03-06T14:37:27;20.73;;;10.40;;
83663;SDS011;73634;47.068;15.426;2024-03-06T14:39:53;19.52;;;9.10;;
83663;SDS011;73634;47.068;15.426;2024-03-06T14:42:18;17.73;;;8.75;;
83663;SDS011;73634;47.068;15.426;2024-03-06T14:44:44;19.30;;;9.48;;
83663;SDS011;73634;47.068;15.426;2024-03-06T14:47:09;21.40;;;12.68;;
83663;SDS011;73634;47.068;15.426;2024-03-06T14:49:35;20.45;;;10.15;;
83663;SDS011;73634;47.068;15.426;2024-03-06T14:52:00;22.13;;;11.48;;
83663;SDS011;73634;47.068;15.426;2024-03-06T14:54:27;20.63;;;10.57;;
83663;SDS011;73634;47.068;15.426;2024-03-06T14:56:52;22.88;;;10.68;;
83663;SDS011;73634;47.068;15.426;2024-03-06T15:02:39;20.73;;;9.80;;
83663;SDS011;73634;47.068;15.426;2024-03-06T15:05:05;19.52;;;9.35;;
83663;SDS011;73634;47.068;15.426;2024-03-06T15:07:30;19.73;;;9.70;;
83663;SDS011;73634;47.068;15.426;2024-03-06T15:09:56;21.20;;;10.30;;
83663;SDS011;73634;47.068;15.426;2024-03-06T15:12:22;35.05;;;18.20;;
83663;SDS011;73634;47.068;15.426;2024-03-06T15:14:48;28.35;;;13.00;;
83663;SDS011;73634;47.068;15.426;2024-03-06T15:17:13;22.42;;;8.70;;
83663;SDS011;73634;47.068;15.426;2024-03-06T15:19:39;17.98;;;8.98;;
83663;SDS011;73634;47.068;15.426;2024-03-06T15:22:05;20.02;;;9.43;;
83663;SDS011;73634;47.068;15.426;2024-03-06T15:26:49;21.05;;;11.20;;
83663;SDS011;73634;47.068;15.426;2024-03-06T15:29:15;18.60;;;10.60;;
83663;SDS011;73634;47.068;15.426;2024-03-06T15:31:40;18.77;;;10.00;;
83663;SDS011;73634;47.068;15.426;2024-03-06T15:34:06;18.80;;;9.10;;
83663;SDS011;73634;47.068;15.426;2024-03-06T15:36:31;17.42;;;9.23;;
83663;SDS011;73634;47.068;15.426;2024-03-06T15:38:57;18.20;;;9.68;;
83663;SDS011;73634;47.068;15.426;2024-03-06T15:41:23;20.80;;;9.95;;
83663;SDS011;73634;47.068;15.426;2024-03-06T15:43:49;20.50;;;9.40;;
83663;SDS011;73634;47.068;15.426;2024-03-06T15:46:14;22.52;;;10.63;;
83663;SDS011;73634;47.068;15.426;2024-03-06T15:51:12;20.42;;;9.18;;
83663;SDS011;73634;47.068;15.426;2024-03-06T15:53:37;20.88;;;10.77;;
83663;SDS011;73634;47.068;15.426;2024-03-06T15:56:02;19.75;;;10.32;;